sensor_id;sensor_type;location;lat;lon;timestamp;temperature;humidity
18733;DHT22;9495;51.210;2.934;2022-07-29T00:01:41;20.30;99.90
18733;DHT22;9495;51.210;2.934;2022-07-29T00:04:09;20.30;99.90
18733;DHT22;9495;51.210;2.934;2022-07-29T00:06:38;20.30;99.90
18733;DHT22;9495;51.210;2.934;2022-07-29T00:09:08;20.20;99.90
18733;DHT22;9495;51.210;2.934;2022-07-29T00:11:36;20.20;99.90
18733;DHT22;9495;51.210;2.934;2022-07-29T00:14:05;20.20;99.90
18733;DHT22;9495;51.210;2.934;2022-07-29T00:16:34;20.10;99.90
18733;DHT22;9495;51.210;2.934;2022-07-29T00:19:03;20.10;99.90
18733;DHT22;9495;51.210;2.934;2022-07-29T00:21:33;20.10;99.90
18733;DHT22;9495;51.210;2.934;2022-07-29T00:24:02;20.00;99.90
18733;DHT22;9495;51.210;2.934;2022-07-29T00:26:32;20.00;99.90
18733;DHT22;9495;51.210;2.934;2022-07-29T00:29:01;19.90;99.90
18733;DHT22;9495;51.210;2.934;2022-07-29T00:31:50;19.90;99.90
18733;DHT22;9495;51.210;2.934;2022-07-29T00:34:19;19.90;99.90
18733;DHT22;9495;51.210;2.934;2022-07-29T00:37:04;19.90;99.90
18733;DHT22;9495;51.210;2.934;2022-07-29T00:39:33;19.90;99.90
18733;DHT22;9495;51.210;2.934;2022-07-29T00:42:04;19.90;99.90
18733;DHT22;9495;51.210;2.934;2022-07-29T00:44:37;19.80;99.90
18733;DHT22;9495;51.210;2.934;2022-07-29T00:47:06;19.80;99.90
18733;DHT22;9495;51.210;2.934;2022-07-29T00:49:34;19.80;99.90
18733;DHT22;9495;51.210;2.934;2022-07-29T00:52:04;19.80;99.90
18733;DHT22;9495;51.210;2.934;2022-07-29T00:54:33;19.80;99.90
18733;DHT22;9495;51.210;2.934;2022-07-29T00:57:12;19.80;99.90
18733;DHT22;9495;51.210;2.934;2022-07-29T00:59:41;19.70;99.90
18733;DHT22;9495;51.210;2.934;2022-07-29T01:02:09;19.70;99.90
18733;DHT22;9495;51.210;2.934;2022-07-29T01:04:38;19.60;99.90
18733;DHT22;9495;51.210;2.934;2022-07-29T01:07:07;19.60;99.90
18733;DHT22;9495;51.210;2.934;2022-07-29T01:09:37;19.70;99.90
18733;DHT22;9495;51.210;2.934;2022-07-29T01:12:16;19.60;99.90
18733;DHT22;9495;51.210;2.934;2022-07-29T01:14:46;19.50;99.90
18733;DHT22;9495;51.210;2.934;2022-07-29T01:17:20;19.40;99.90
18733;DHT22;9495;51.210;2.934;2022-07-29T01:19:53;19.40;99.90
18733;DHT22;9495;51.210;2.934;2022-07-29T01:22:28;19.40;99.90
18733;DHT22;9495;51.210;2.934;2022-07-29T01:28:02;19.30;99.90
18733;DHT22;9495;51.210;2.934;2022-07-29T01:30:41;19.40;99.90
18733;DHT22;9495;51.210;2.934;2022-07-29T01:33:15;19.40;99.90
18733;DHT22;9495;51.210;2.934;2022-07-29T01:36:00;19.30;99.90
18733;DHT22;9495;51.210;2.934;2022-07-29T01:38:30;19.30;99.90
18733;DHT22;9495;51.210;2.934;2022-07-29T01:41:02;19.30;99.90
18733;DHT22;9495;51.210;2.934;2022-07-29T01:43:51;19.20;99.90
18733;DHT22;9495;51.210;2.934;2022-07-29T01:46:25;19.10;99.90
18733;DHT22;9495;51.210;2.934;2022-07-29T01:48:58;19.10;99.90
18733;DHT22;9495;51.210;2.934;2022-07-29T01:51:33;19.10;99.90
18733;DHT22;9495;51.210;2.934;2022-07-29T01:54:08;19.00;99.90
18733;DHT22;9495;51.210;2.934;2022-07-29T01:56:40;19.20;99.90
18733;DHT22;9495;51.210;2.934;2022-07-29T01:59:10;19.10;99.90
18733;DHT22;9495;51.210;2.934;2022-07-29T02:01:43;19.00;99.90
18733;DHT22;9495;51.210;2.934;2022-07-29T02:04:12;19.00;99.90
18733;DHT22;9495;51.210;2.934;2022-07-29T02:07:02;19.00;99.90
18733;DHT22;9495;51.210;2.934;2022-07-29T02:09:34;19.00;99.90
18733;DHT22;9495;51.210;2.934;2022-07-29T02:12:04;18.90;99.90
18733;DHT22;9495;51.210;2.934;2022-07-29T02:14:38;18.90;99.90
18733;DHT22;9495;51.210;2.934;2022-07-29T02:17:09;18.90;99.90
18733;DHT22;9495;51.210;2.934;2022-07-29T02:19:39;18.90;99.90
18733;DHT22;9495;51.210;2.934;2022-07-29T02:22:09;18.90;99.90
18733;DHT22;9495;51.210;2.934;2022-07-29T02:24:39;18.90;99.90
18733;DHT22;9495;51.210;2.934;2022-07-29T02:27:09;18.90;99.90
18733;DHT22;9495;51.210;2.934;2022-07-29T02:29:40;18.80;99.90
18733;DHT22;9495;51.210;2.934;2022-07-29T02:32:10;18.70;99.90
18733;DHT22;9495;51.210;2.934;2022-07-29T02:34:40;18.70;99.90
18733;DHT22;9495;51.210;2.934;2022-07-29T02:37:09;18.60;99.90
18733;DHT22;9495;51.210;2.934;2022-07-29T02:39:39;18.60;99.90
18733;DHT22;9495;51.210;2.934;2022-07-29T02:42:12;18.50;99.90
18733;DHT22;9495;51.210;2.934;2022-07-29T02:44:41;18.40;99.90
18733;DHT22;9495;51.210;2.934;2022-07-29T02:47:16;18.40;99.90
18733;DHT22;9495;51.210;2.934;2022-07-29T02:49:51;18.30;99.90
18733;DHT22;9495;51.210;2.934;2022-07-29T02:52:24;18.30;99.90
18733;DHT22;9495;51.210;2.934;2022-07-29T02:54:55;18.20;99.90
18733;DHT22;9495;51.210;2.934;2022-07-29T02:57:31;18.20;99.90
18733;DHT22;9495;51.210;2.934;2022-07-29T03:00:21;18.20;99.90
18733;DHT22;9495;51.210;2.934;2022-07-29T03:02:54;18.20;99.90
18733;DHT22;9495;51.210;2.934;2022-07-29T03:05:24;18.20;99.90
18733;DHT22;9495;51.210;2.934;2022-07-29T03:07:56;18.20;99.90
18733;DHT22;9495;51.210;2.934;2022-07-29T03:10:25;18.20;99.90
18733;DHT22;9495;51.210;2.934;2022-07-29T03:12:55;18.20;99.90
18733;DHT22;9495;51.210;2.934;2022-07-29T03:15:25;18.20;99.90
18733;DHT22;9495;51.210;2.934;2022-07-29T03:17:56;18.20;99.90
18733;DHT22;9495;51.210;2.934;2022-07-29T03:20:25;18.20;99.90
18733;DHT22;9495;51.210;2.934;2022-07-29T03:22:53;18.20;99.90
18733;DHT22;9495;51.210;2.934;2022-07-29T03:25:22;18.20;99.90
18733;DHT22;9495;51.210;2.934;2022-07-29T03:27:50;18.20;99.90
18733;DHT22;9495;51.210;2.934;2022-07-29T03:30:18;18.30;99.90
18733;DHT22;9495;51.210;2.934;2022-07-29T03:32:49;18.30;99.90
18733;DHT22;9495;51.210;2.934;2022-07-29T03:35:19;18.30;99.90
18733;DHT22;9495;51.210;2.934;2022-07-29T03:37:48;18.30;99.90
18733;DHT22;9495;51.210;2.934;2022-07-29T03:40:21;18.40;99.90
18733;DHT22;9495;51.210;2.934;2022-07-29T03:42:51;18.40;99.90
18733;DHT22;9495;51.210;2.934;2022-07-29T03:45:23;18.40;99.90
18733;DHT22;9495;51.210;2.934;2022-07-29T03:47:55;18.50;99.90
18733;DHT22;9495;51.210;2.934;2022-07-29T03:50:29;18.40;99.90
18733;DHT22;9495;51.210;2.934;2022-07-29T03:52:58;18.40;99.90
18733;DHT22;9495;51.210;2.934;2022-07-29T03:55:29;18.30;99.90
18733;DHT22;9495;51.210;2.934;2022-07-29T03:58:00;18.30;99.90
18733;DHT22;9495;51.210;2.934;2022-07-29T04:00:30;18.40;99.90
18733;DHT22;9495;51.210;2.934;2022-07-29T04:03:00;18.40;99.90
18733;DHT22;9495;51.210;2.934;2022-07-29T04:05:30;18.40;99.90
18733;DHT22;9495;51.210;2.934;2022-07-29T04:07:58;18.40;99.90
18733;DHT22;9495;51.210;2.934;2022-07-29T04:10:27;18.40;99.90
18733;DHT22;9495;51.210;2.934;2022-07-29T04:12:58;18.40;99.90
18733;DHT22;9495;51.210;2.934;2022-07-29T04:15:27;18.30;99.90
18733;DHT22;9495;51.210;2.934;2022-07-29T04:17:57;18.30;99.90
18733;DHT22;9495;51.210;2.934;2022-07-29T04:20:26;18.20;99.90
18733;DHT22;9495;51.210;2.934;2022-07-29T04:22:56;18.20;99.90
18733;DHT22;9495;51.210;2.934;2022-07-29T04:25:24;18.20;99.90
18733;DHT22;9495;51.210;2.934;2022-07-29T04:27:53;18.20;99.90
18733;DHT22;9495;51.210;2.934;2022-07-29T04:30:30;18.20;99.90
18733;DHT22;9495;51.210;2.934;2022-07-29T04:32:59;18.20;99.90
18733;DHT22;9495;51.210;2.934;2022-07-29T04:35:29;18.10;99.90
18733;DHT22;9495;51.210;2.934;2022-07-29T04:38:06;18.10;99.90
18733;DHT22;9495;51.210;2.934;2022-07-29T04:40:43;18.10;99.90
18733;DHT22;9495;51.210;2.934;2022-07-29T04:43:13;18.10;99.90
18733;DHT22;9495;51.210;2.934;2022-07-29T04:45:48;18.10;99.90
18733;DHT22;9495;51.210;2.934;2022-07-29T04:48:17;18.10;99.90
18733;DHT22;9495;51.210;2.934;2022-07-29T04:50:48;18.10;99.90
18733;DHT22;9495;51.210;2.934;2022-07-29T04:53:18;18.10;99.90
18733;DHT22;9495;51.210;2.934;2022-07-29T04:55:47;18.10;99.90
18733;DHT22;9495;51.210;2.934;2022-07-29T04:58:15;18.20;99.90
18733;DHT22;9495;51.210;2.934;2022-07-29T05:00:44;18.20;99.90
18733;DHT22;9495;51.210;2.934;2022-07-29T05:03:12;18.20;99.90
18733;DHT22;9495;51.210;2.934;2022-07-29T05:05:41;18.20;99.90
18733;DHT22;9495;51.210;2.934;2022-07-29T05:08:09;18.20;99.90
18733;DHT22;9495;51.210;2.934;2022-07-29T05:10:39;18.30;99.90
18733;DHT22;9495;51.210;2.934;2022-07-29T05:13:07;18.30;99.90
18733;DHT22;9495;51.210;2.934;2022-07-29T05:15:36;18.30;99.90
18733;DHT22;9495;51.210;2.934;2022-07-29T05:18:06;18.30;99.90
18733;DHT22;9495;51.210;2.934;2022-07-29T05:20:34;18.30;99.90
18733;DHT22;9495;51.210;2.934;2022-07-29T05:23:03;18.40;99.90
18733;DHT22;9495;51.210;2.934;2022-07-29T05:25:31;18.40;99.90
18733;DHT22;9495;51.210;2.934;2022-07-29T05:28:12;18.50;99.90
18733;DHT22;9495;51.210;2.934;2022-07-29T05:30:40;18.60;99.90
18733;DHT22;9495;51.210;2.934;2022-07-29T05:33:09;18.60;99.90
18733;DHT22;9495;51.210;2.934;2022-07-29T05:35:57;18.60;99.90
18733;DHT22;9495;51.210;2.934;2022-07-29T05:38:27;18.70;99.90
18733;DHT22;9495;51.210;2.934;2022-07-29T05:40:57;18.70;99.90
18733;DHT22;9495;51.210;2.934;2022-07-29T05:43:27;18.70;99.90
18733;DHT22;9495;51.210;2.934;2022-07-29T05:45:56;18.80;99.90
18733;DHT22;9495;51.210;2.934;2022-07-29T05:48:25;18.80;99.90
18733;DHT22;9495;51.210;2.934;2022-07-29T05:50:53;18.80;99.90
18733;DHT22;9495;51.210;2.934;2022-07-29T05:53:22;18.90;99.90
18733;DHT22;9495;51.210;2.934;2022-07-29T05:55:51;19.00;99.90
18733;DHT22;9495;51.210;2.934;2022-07-29T05:58:19;19.00;99.90
18733;DHT22;9495;51.210;2.934;2022-07-29T06:00:49;19.00;99.90
18733;DHT22;9495;51.210;2.934;2022-07-29T06:03:18;19.10;99.90
18733;DHT22;9495;51.210;2.934;2022-07-29T06:05:46;19.20;99.90
18733;DHT22;9495;51.210;2.934;2022-07-29T06:08:14;19.20;99.90
18733;DHT22;9495;51.210;2.934;2022-07-29T06:10:43;19.30;99.90
18733;DHT22;9495;51.210;2.934;2022-07-29T06:13:12;19.30;99.90
18733;DHT22;9495;51.210;2.934;2022-07-29T06:15:43;19.30;99.90
18733;DHT22;9495;51.210;2.934;2022-07-29T06:18:14;19.40;99.90
18733;DHT22;9495;51.210;2.934;2022-07-29T06:20:42;19.40;99.90
18733;DHT22;9495;51.210;2.934;2022-07-29T06:23:11;19.50;99.90
18733;DHT22;9495;51.210;2.934;2022-07-29T06:25:40;19.50;99.90
18733;DHT22;9495;51.210;2.934;2022-07-29T06:28:10;19.50;99.90
18733;DHT22;9495;51.210;2.934;2022-07-29T06:30:38;19.60;99.90
18733;DHT22;9495;51.210;2.934;2022-07-29T06:33:07;19.60;99.90
18733;DHT22;9495;51.210;2.934;2022-07-29T06:35:37;19.70;99.90
18733;DHT22;9495;51.210;2.934;2022-07-29T06:38:10;19.70;99.90
18733;DHT22;9495;51.210;2.934;2022-07-29T06:41:00;19.80;99.90
18733;DHT22;9495;51.210;2.934;2022-07-29T06:43:31;19.90;99.90
18733;DHT22;9495;51.210;2.934;2022-07-29T06:46:01;19.90;99.90
18733;DHT22;9495;51.210;2.934;2022-07-29T06:48:30;19.90;99.90
18733;DHT22;9495;51.210;2.934;2022-07-29T06:51:00;20.00;99.90
18733;DHT22;9495;51.210;2.934;2022-07-29T06:53:29;20.10;99.90
18733;DHT22;9495;51.210;2.934;2022-07-29T06:55:57;20.10;99.90
18733;DHT22;9495;51.210;2.934;2022-07-29T06:58:27;20.10;99.90
18733;DHT22;9495;51.210;2.934;2022-07-29T07:00:57;20.20;99.90
18733;DHT22;9495;51.210;2.934;2022-07-29T07:03:25;20.20;99.90
18733;DHT22;9495;51.210;2.934;2022-07-29T07:05:54;20.20;99.90
18733;DHT22;9495;51.210;2.934;2022-07-29T07:08:27;20.30;99.90
18733;DHT22;9495;51.210;2.934;2022-07-29T07:10:56;20.30;99.90
18733;DHT22;9495;51.210;2.934;2022-07-29T07:13:24;20.30;99.90
18733;DHT22;9495;51.210;2.934;2022-07-29T07:15:53;20.40;99.90
18733;DHT22;9495;51.210;2.934;2022-07-29T07:18:21;20.40;99.90
18733;DHT22;9495;51.210;2.934;2022-07-29T07:20:50;20.30;99.90
18733;DHT22;9495;51.210;2.934;2022-07-29T07:23:18;20.40;99.90
18733;DHT22;9495;51.210;2.934;2022-07-29T07:25:48;20.40;99.90
18733;DHT22;9495;51.210;2.934;2022-07-29T07:28:16;20.60;99.90
18733;DHT22;9495;51.210;2.934;2022-07-29T07:30:50;20.60;99.90
18733;DHT22;9495;51.210;2.934;2022-07-29T07:33:19;20.60;99.90
18733;DHT22;9495;51.210;2.934;2022-07-29T07:35:47;20.70;99.90
18733;DHT22;9495;51.210;2.934;2022-07-29T07:38:16;20.70;99.90
18733;DHT22;9495;51.210;2.934;2022-07-29T07:40:44;20.80;99.90
18733;DHT22;9495;51.210;2.934;2022-07-29T07:43:15;20.70;99.90
18733;DHT22;9495;51.210;2.934;2022-07-29T07:45:43;21.00;99.90
18733;DHT22;9495;51.210;2.934;2022-07-29T07:48:12;20.80;99.90
18733;DHT22;9495;51.210;2.934;2022-07-29T07:50:40;20.80;99.90
18733;DHT22;9495;51.210;2.934;2022-07-29T07:53:09;20.90;99.90
18733;DHT22;9495;51.210;2.934;2022-07-29T07:55:40;21.00;99.90
18733;DHT22;9495;51.210;2.934;2022-07-29T07:58:29;21.10;99.90
18733;DHT22;9495;51.210;2.934;2022-07-29T08:00:58;21.10;99.90
18733;DHT22;9495;51.210;2.934;2022-07-29T08:03:26;21.00;99.90
18733;DHT22;9495;51.210;2.934;2022-07-29T08:05:55;21.00;99.90
18733;DHT22;9495;51.210;2.934;2022-07-29T08:08:24;21.00;99.90
18733;DHT22;9495;51.210;2.934;2022-07-29T08:10:52;21.10;99.90
18733;DHT22;9495;51.210;2.934;2022-07-29T08:13:24;21.10;99.90
18733;DHT22;9495;51.210;2.934;2022-07-29T08:15:56;21.00;99.90
18733;DHT22;9495;51.210;2.934;2022-07-29T08:18:29;21.10;99.90
18733;DHT22;9495;51.210;2.934;2022-07-29T08:20:58;21.10;99.90
18733;DHT22;9495;51.210;2.934;2022-07-29T08:23:27;21.20;99.90
18733;DHT22;9495;51.210;2.934;2022-07-29T08:26:14;21.20;99.90
18733;DHT22;9495;51.210;2.934;2022-07-29T08:28:44;21.30;99.90
18733;DHT22;9495;51.210;2.934;2022-07-29T08:31:14;21.20;99.90
18733;DHT22;9495;51.210;2.934;2022-07-29T08:33:43;21.20;99.90
18733;DHT22;9495;51.210;2.934;2022-07-29T08:36:11;21.20;99.90
18733;DHT22;9495;51.210;2.934;2022-07-29T08:38:41;21.40;99.90
18733;DHT22;9495;51.210;2.934;2022-07-29T08:41:09;21.40;99.90
18733;DHT22;9495;51.210;2.934;2022-07-29T08:43:39;21.10;99.90
18733;DHT22;9495;51.210;2.934;2022-07-29T08:46:07;21.50;99.90
18733;DHT22;9495;51.210;2.934;2022-07-29T08:48:38;21.50;99.90
18733;DHT22;9495;51.210;2.934;2022-07-29T08:51:13;21.50;99.90
18733;DHT22;9495;51.210;2.934;2022-07-29T08:53:42;21.60;99.90
18733;DHT22;9495;51.210;2.934;2022-07-29T08:56:12;21.40;99.90
18733;DHT22;9495;51.210;2.934;2022-07-29T08:58:41;21.30;99.90
18733;DHT22;9495;51.210;2.934;2022-07-29T09:01:17;21.20;99.90
18733;DHT22;9495;51.210;2.934;2022-07-29T09:04:03;21.30;99.90
18733;DHT22;9495;51.210;2.934;2022-07-29T09:06:34;21.40;99.90
18733;DHT22;9495;51.210;2.934;2022-07-29T09:09:05;21.40;99.90
18733;DHT22;9495;51.210;2.934;2022-07-29T09:11:35;21.40;99.90
18733;DHT22;9495;51.210;2.934;2022-07-29T09:14:03;21.50;99.90
18733;DHT22;9495;51.210;2.934;2022-07-29T09:16:46;21.30;99.90
18733;DHT22;9495;51.210;2.934;2022-07-29T09:19:23;21.40;99.90
18733;DHT22;9495;51.210;2.934;2022-07-29T09:21:52;21.50;99.90
18733;DHT22;9495;51.210;2.934;2022-07-29T09:24:41;21.40;99.90
18733;DHT22;9495;51.210;2.934;2022-07-29T09:27:18;21.60;99.90
18733;DHT22;9495;51.210;2.934;2022-07-29T09:29:55;21.60;99.90
18733;DHT22;9495;51.210;2.934;2022-07-29T09:32:24;21.80;99.90
18733;DHT22;9495;51.210;2.934;2022-07-29T09:35:13;21.70;99.90
18733;DHT22;9495;51.210;2.934;2022-07-29T09:37:43;21.50;99.90
18733;DHT22;9495;51.210;2.934;2022-07-29T09:40:13;21.60;99.90
18733;DHT22;9495;51.210;2.934;2022-07-29T09:42:43;21.70;99.90
18733;DHT22;9495;51.210;2.934;2022-07-29T09:45:12;21.80;99.90
18733;DHT22;9495;51.210;2.934;2022-07-29T09:47:42;21.70;99.90
18733;DHT22;9495;51.210;2.934;2022-07-29T09:50:14;22.10;99.90
18733;DHT22;9495;51.210;2.934;2022-07-29T09:52:48;21.90;99.90
18733;DHT22;9495;51.210;2.934;2022-07-29T09:55:17;21.80;99.90
18733;DHT22;9495;51.210;2.934;2022-07-29T09:57:46;21.70;99.90
18733;DHT22;9495;51.210;2.934;2022-07-29T10:00:16;21.80;99.90
18733;DHT22;9495;51.210;2.934;2022-07-29T10:02:46;21.80;99.90
18733;DHT22;9495;51.210;2.934;2022-07-29T10:05:21;21.90;99.90
18733;DHT22;9495;51.210;2.934;2022-07-29T10:07:52;22.00;99.90
18733;DHT22;9495;51.210;2.934;2022-07-29T10:10:24;21.90;99.90
18733;DHT22;9495;51.210;2.934;2022-07-29T10:12:55;22.10;99.90
18733;DHT22;9495;51.210;2.934;2022-07-29T10:15:29;22.20;99.90
18733;DHT22;9495;51.210;2.934;2022-07-29T10:17:59;21.90;99.90
18733;DHT22;9495;51.210;2.934;2022-07-29T10:20:29;21.90;99.90
18733;DHT22;9495;51.210;2.934;2022-07-29T10:22:58;21.80;99.90
18733;DHT22;9495;51.210;2.934;2022-07-29T10:25:28;22.10;99.90
18733;DHT22;9495;51.210;2.934;2022-07-29T10:27:56;22.20;99.90
18733;DHT22;9495;51.210;2.934;2022-07-29T10:30:26;22.10;99.90
18733;DHT22;9495;51.210;2.934;2022-07-29T10:33:21;22.20;99.90
18733;DHT22;9495;51.210;2.934;2022-07-29T10:36:09;22.30;99.90
18733;DHT22;9495;51.210;2.934;2022-07-29T10:38:45;22.10;99.90
18733;DHT22;9495;51.210;2.934;2022-07-29T10:41:37;22.20;99.90
18733;DHT22;9495;51.210;2.934;2022-07-29T10:44:14;22.50;99.90
18733;DHT22;9495;51.210;2.934;2022-07-29T10:46:46;22.70;99.90
18733;DHT22;9495;51.210;2.934;2022-07-29T10:49:16;22.60;99.90
18733;DHT22;9495;51.210;2.934;2022-07-29T10:51:54;22.70;99.90
18733;DHT22;9495;51.210;2.934;2022-07-29T10:54:38;22.50;99.90
18733;DHT22;9495;51.210;2.934;2022-07-29T10:57:30;22.60;99.90
18733;DHT22;9495;51.210;2.934;2022-07-29T11:00:28;22.40;99.90
18733;DHT22;9495;51.210;2.934;2022-07-29T11:02:57;22.30;99.90
18733;DHT22;9495;51.210;2.934;2022-07-29T11:05:53;22.50;99.90
18733;DHT22;9495;51.210;2.934;2022-07-29T11:08:27;22.30;99.90
18733;DHT22;9495;51.210;2.934;2022-07-29T11:14:04;22.30;99.90
18733;DHT22;9495;51.210;2.934;2022-07-29T11:17:02;22.50;99.90
18733;DHT22;9495;51.210;2.934;2022-07-29T11:19:33;22.40;99.90
18733;DHT22;9495;51.210;2.934;2022-07-29T11:22:02;22.50;99.90
18733;DHT22;9495;51.210;2.934;2022-07-29T11:24:32;22.60;99.90
18733;DHT22;9495;51.210;2.934;2022-07-29T11:27:10;22.50;99.90
18733;DHT22;9495;51.210;2.934;2022-07-29T11:29:47;22.70;99.90
18733;DHT22;9495;51.210;2.934;2022-07-29T11:32:17;22.60;99.90
18733;DHT22;9495;51.210;2.934;2022-07-29T11:37:44;22.30;99.90
18733;DHT22;9495;51.210;2.934;2022-07-29T11:40:23;22.20;99.90
18733;DHT22;9495;51.210;2.934;2022-07-29T11:42:51;22.10;99.90
18733;DHT22;9495;51.210;2.934;2022-07-29T11:45:25;22.30;99.90
18733;DHT22;9495;51.210;2.934;2022-07-29T11:48:16;22.40;99.90
18733;DHT22;9495;51.210;2.934;2022-07-29T11:50:59;22.10;99.90
18733;DHT22;9495;51.210;2.934;2022-07-29T11:53:29;22.20;99.90
18733;DHT22;9495;51.210;2.934;2022-07-29T11:56:00;22.50;99.90
18733;DHT22;9495;51.210;2.934;2022-07-29T11:58:30;22.60;99.90
18733;DHT22;9495;51.210;2.934;2022-07-29T12:00:59;22.70;99.90
18733;DHT22;9495;51.210;2.934;2022-07-29T12:03:47;22.70;99.90
18733;DHT22;9495;51.210;2.934;2022-07-29T12:06:32;22.80;99.90
18733;DHT22;9495;51.210;2.934;2022-07-29T12:09:06;22.70;99.90
18733;DHT22;9495;51.210;2.934;2022-07-29T12:11:42;22.80;99.90
18733;DHT22;9495;51.210;2.934;2022-07-29T12:14:28;22.90;99.90
18733;DHT22;9495;51.210;2.934;2022-07-29T12:16:58;22.90;99.90
18733;DHT22;9495;51.210;2.934;2022-07-29T12:19:27;22.90;99.90
18733;DHT22;9495;51.210;2.934;2022-07-29T12:21:57;23.00;99.90
18733;DHT22;9495;51.210;2.934;2022-07-29T12:24:42;22.50;99.90
18733;DHT22;9495;51.210;2.934;2022-07-29T12:27:12;22.60;99.90
18733;DHT22;9495;51.210;2.934;2022-07-29T12:29:56;22.80;99.90
18733;DHT22;9495;51.210;2.934;2022-07-29T12:32:31;22.80;99.90
18733;DHT22;9495;51.210;2.934;2022-07-29T12:35:02;22.40;99.90
18733;DHT22;9495;51.210;2.934;2022-07-29T12:37:33;22.40;99.90
18733;DHT22;9495;51.210;2.934;2022-07-29T12:40:09;22.40;99.90
18733;DHT22;9495;51.210;2.934;2022-07-29T12:42:39;22.20;99.90
18733;DHT22;9495;51.210;2.934;2022-07-29T12:45:08;22.40;99.90
18733;DHT22;9495;51.210;2.934;2022-07-29T12:47:51;22.60;99.90
18733;DHT22;9495;51.210;2.934;2022-07-29T12:50:20;22.70;99.90
18733;DHT22;9495;51.210;2.934;2022-07-29T12:52:52;22.90;99.90
18733;DHT22;9495;51.210;2.934;2022-07-29T12:55:38;22.90;99.90
18733;DHT22;9495;51.210;2.934;2022-07-29T12:58:08;22.90;99.90
18733;DHT22;9495;51.210;2.934;2022-07-29T13:00:37;22.70;99.90
18733;DHT22;9495;51.210;2.934;2022-07-29T13:03:05;22.70;99.90
18733;DHT22;9495;51.210;2.934;2022-07-29T13:05:41;22.70;99.90
18733;DHT22;9495;51.210;2.934;2022-07-29T13:08:16;22.70;99.90
18733;DHT22;9495;51.210;2.934;2022-07-29T13:10:46;22.70;99.90
18733;DHT22;9495;51.210;2.934;2022-07-29T13:13:16;22.90;99.90
18733;DHT22;9495;51.210;2.934;2022-07-29T13:15:45;22.50;99.90
18733;DHT22;9495;51.210;2.934;2022-07-29T13:18:27;22.60;99.90
18733;DHT22;9495;51.210;2.934;2022-07-29T13:20:56;22.60;99.90
18733;DHT22;9495;51.210;2.934;2022-07-29T13:23:25;22.70;99.90
18733;DHT22;9495;51.210;2.934;2022-07-29T13:25:53;22.90;99.90
18733;DHT22;9495;51.210;2.934;2022-07-29T13:28:23;22.50;99.90
18733;DHT22;9495;51.210;2.934;2022-07-29T13:30:51;22.80;99.90
18733;DHT22;9495;51.210;2.934;2022-07-29T13:33:20;22.90;99.90
18733;DHT22;9495;51.210;2.934;2022-07-29T13:35:48;23.00;99.90
18733;DHT22;9495;51.210;2.934;2022-07-29T13:38:17;23.00;99.90
18733;DHT22;9495;51.210;2.934;2022-07-29T13:40:46;22.90;99.90
18733;DHT22;9495;51.210;2.934;2022-07-29T13:43:14;22.70;99.90
18733;DHT22;9495;51.210;2.934;2022-07-29T13:45:44;22.40;99.90
18733;DHT22;9495;51.210;2.934;2022-07-29T13:48:12;22.60;99.90
18733;DHT22;9495;51.210;2.934;2022-07-29T13:50:40;22.60;99.90
18733;DHT22;9495;51.210;2.934;2022-07-29T13:53:09;22.40;99.90
18733;DHT22;9495;51.210;2.934;2022-07-29T13:55:45;22.50;99.90
18733;DHT22;9495;51.210;2.934;2022-07-29T13:58:14;22.60;99.90
18733;DHT22;9495;51.210;2.934;2022-07-29T14:00:44;22.60;99.90
18733;DHT22;9495;51.210;2.934;2022-07-29T14:03:13;22.80;99.90
18733;DHT22;9495;51.210;2.934;2022-07-29T14:05:41;22.80;99.90
18733;DHT22;9495;51.210;2.934;2022-07-29T14:08:10;23.00;99.90
18733;DHT22;9495;51.210;2.934;2022-07-29T14:10:38;23.00;99.90
18733;DHT22;9495;51.210;2.934;2022-07-29T14:13:07;22.70;99.90
18733;DHT22;9495;51.210;2.934;2022-07-29T14:15:55;22.20;99.90
18733;DHT22;9495;51.210;2.934;2022-07-29T14:18:24;22.30;99.90
18733;DHT22;9495;51.210;2.934;2022-07-29T14:20:52;22.50;99.90
18733;DHT22;9495;51.210;2.934;2022-07-29T14:23:21;22.70;99.90
18733;DHT22;9495;51.210;2.934;2022-07-29T14:25:49;22.80;99.90
18733;DHT22;9495;51.210;2.934;2022-07-29T14:28:19;23.00;99.90
18733;DHT22;9495;51.210;2.934;2022-07-29T14:30:47;23.00;99.90
18733;DHT22;9495;51.210;2.934;2022-07-29T14:33:17;23.10;99.90
18733;DHT22;9495;51.210;2.934;2022-07-29T14:35:46;23.10;99.90
18733;DHT22;9495;51.210;2.934;2022-07-29T14:38:15;23.10;99.90
18733;DHT22;9495;51.210;2.934;2022-07-29T14:40:43;23.20;99.90
18733;DHT22;9495;51.210;2.934;2022-07-29T14:43:17;23.20;99.90
18733;DHT22;9495;51.210;2.934;2022-07-29T14:45:47;22.90;99.90
18733;DHT22;9495;51.210;2.934;2022-07-29T14:48:17;22.70;99.90
18733;DHT22;9495;51.210;2.934;2022-07-29T14:50:46;22.50;99.90
18733;DHT22;9495;51.210;2.934;2022-07-29T14:53:14;22.70;99.90
18733;DHT22;9495;51.210;2.934;2022-07-29T14:55:43;22.90;99.90
18733;DHT22;9495;51.210;2.934;2022-07-29T14:58:12;22.90;99.90
18733;DHT22;9495;51.210;2.934;2022-07-29T15:00:42;22.80;99.90
18733;DHT22;9495;51.210;2.934;2022-07-29T15:03:11;23.00;99.90
18733;DHT22;9495;51.210;2.934;2022-07-29T15:05:54;22.70;99.90
18733;DHT22;9495;51.210;2.934;2022-07-29T15:08:23;22.70;99.90
18733;DHT22;9495;51.210;2.934;2022-07-29T15:10:52;22.80;99.90
18733;DHT22;9495;51.210;2.934;2022-07-29T15:13:20;22.80;99.90
18733;DHT22;9495;51.210;2.934;2022-07-29T15:15:49;22.80;99.90
18733;DHT22;9495;51.210;2.934;2022-07-29T15:18:20;22.90;99.90
18733;DHT22;9495;51.210;2.934;2022-07-29T15:20:53;22.80;99.90
18733;DHT22;9495;51.210;2.934;2022-07-29T15:23:21;22.80;99.90
18733;DHT22;9495;51.210;2.934;2022-07-29T15:25:50;22.60;99.90
18733;DHT22;9495;51.210;2.934;2022-07-29T15:28:18;22.40;99.90
18733;DHT22;9495;51.210;2.934;2022-07-29T15:30:46;22.00;99.90
18733;DHT22;9495;51.210;2.934;2022-07-29T15:33:15;22.50;99.90
18733;DHT22;9495;51.210;2.934;2022-07-29T15:35:43;22.60;99.90
18733;DHT22;9495;51.210;2.934;2022-07-29T15:38:13;22.70;99.90
18733;DHT22;9495;51.210;2.934;2022-07-29T15:40:42;22.60;99.90
18733;DHT22;9495;51.210;2.934;2022-07-29T15:43:11;22.50;99.90
18733;DHT22;9495;51.210;2.934;2022-07-29T15:45:41;22.70;99.90
18733;DHT22;9495;51.210;2.934;2022-07-29T15:48:29;22.90;99.90
18733;DHT22;9495;51.210;2.934;2022-07-29T15:50:58;22.60;99.90
18733;DHT22;9495;51.210;2.934;2022-07-29T15:53:28;22.40;99.90
18733;DHT22;9495;51.210;2.934;2022-07-29T15:55:59;22.70;99.90
18733;DHT22;9495;51.210;2.934;2022-07-29T15:58:28;22.40;99.90
18733;DHT22;9495;51.210;2.934;2022-07-29T16:00:56;22.60;99.90
18733;DHT22;9495;51.210;2.934;2022-07-29T16:03:25;22.80;99.90
18733;DHT22;9495;51.210;2.934;2022-07-29T16:05:53;22.70;99.90
18733;DHT22;9495;51.210;2.934;2022-07-29T16:08:22;22.70;99.90
18733;DHT22;9495;51.210;2.934;2022-07-29T16:10:51;22.40;99.90
18733;DHT22;9495;51.210;2.934;2022-07-29T16:13:21;22.60;99.90
18733;DHT22;9495;51.210;2.934;2022-07-29T16:15:49;22.50;99.90
18733;DHT22;9495;51.210;2.934;2022-07-29T16:18:28;22.50;99.90
18733;DHT22;9495;51.210;2.934;2022-07-29T16:20:57;22.80;99.90
18733;DHT22;9495;51.210;2.934;2022-07-29T16:23:26;22.60;99.90